Time;durP1;ratioP1;P1;durP2;ratioP2;P2;SDS_P1;SDS_P2;PMS_P1;PMS_P2;Temp;Humidity;BMP_temperature;BMP_pressure;BME280_temperature;BME280_humidity;BME280_pressure;Samples;Min_cycle;Max_cycle;Signal;HPM_P1;HPM_P2
2023/07/04 00:01:46;;;;;;;2.17;1.67;;;26.30;42.00;;;;;;5147765;27;45524;-67
2023/07/04 00:04:13;;;;;;;1.75;1.65;;;26.20;42.00;;;;;;5147523;27;46620;-67
2023/07/04 00:06:40;;;;;;;1.70;1.60;;;26.20;42.00;;;;;;5147457;27;45250;-66
2023/07/04 00:09:07;;;;;;;1.58;1.48;;;26.20;42.10;;;;;;5147659;27;45321;-67
2023/07/04 00:11:34;;;;;;;1.52;1.42;;;26.20;42.00;;;;;;5147540;27;45296;-67
2023/07/04 00:14:01;;;;;;;1.85;1.70;;;26.20;42.00;;;;;;5147384;27;45298;-67
2023/07/04 00:16:30;;;;;;;3.53;1.77;;;26.20;42.00;;;;;;5147270;27;45341;-67
2023/07/04 00:18:57;;;;;;;1.80;1.70;;;26.20;42.00;;;;;;5147535;27;45398;-66
2023/07/04 00:21:24;;;;;;;1.55;1.45;;;26.20;42.10;;;;;;5147436;27;45454;-67
2023/07/04 00:23:52;;;;;;;1.52;1.42;;;26.10;42.00;;;;;;5147260;27;45788;-66
2023/07/04 00:26:20;;;;;;;2.72;1.70;;;26.10;42.60;;;;;;5147218;27;45204;-67
2023/07/04 00:28:47;;;;;;;1.50;1.40;;;26.10;42.00;;;;;;5147889;27;45255;-66
2023/07/04 00:31:15;;;;;;;1.83;1.52;;;26.10;42.00;;;;;;5150967;27;45418;-66
2023/07/04 00:33:44;;;;;;;3.17;1.40;;;26.10;42.00;;;;;;5150721;27;45278;-67
2023/07/04 00:36:12;;;;;;;1.92;1.67;;;26.10;42.00;;;;;;5150793;27;45262;-67
2023/07/04 00:38:40;;;;;;;1.38;1.27;;;26.10;42.00;;;;;;5150749;27;45392;-66
2023/07/04 00:41:07;;;;;;;2.03;1.45;;;26.10;42.10;;;;;;5150885;27;45325;-67
2023/07/04 00:43:56;;;;;;;1.85;1.73;;;26.00;42.70;;;;;;5150565;27;45249;-67
2023/07/04 00:46:28;;;;;;;1.60;1.50;;;26.00;42.10;;;;;;5150555;27;45292;-67
2023/07/04 00:48:57;;;;;;;2.28;1.60;;;26.00;42.10;;;;;;5150726;27;45260;-67
2023/07/04 00:51:24;;;;;;;2.13;1.55;;;26.00;42.20;;;;;;5150394;27;45505;-67
2023/07/04 00:53:53;;;;;;;1.55;1.45;;;26.00;42.10;;;;;;5150417;27;45422;-66
2023/07/04 00:56:22;;;;;;;1.60;1.50;;;26.00;42.10;;;;;;5150432;27;45295;-67
2023/07/04 00:58:49;;;;;;;1.73;1.50;;;26.00;42.20;;;;;;5150510;27;45373;-67
2023/07/04 01:01:19;;;;;;;1.30;1.20;;;26.00;42.20;;;;;;5150706;27;45328;-66
2023/07/04 01:03:46;;;;;;;1.95;1.60;;;26.00;42.20;;;;;;5150350;27;46838;-66
2023/07/04 01:06:20;;;;;;;1.45;1.35;;;26.00;42.20;;;;;;5150209;27;45308;-67
2023/07/04 01:08:47;;;;;;;1.60;1.50;;;26.00;42.20;;;;;;5150499;27;45327;-66
2023/07/04 01:11:16;;;;;;;1.40;1.30;;;26.00;42.30;;;;;;5150466;27;45409;-66
2023/07/04 01:13:44;;;;;;;1.42;1.30;;;25.90;42.20;;;;;;5150050;27;46714;-66
2023/07/04 01:16:12;;;;;;;1.35;1.25;;;25.90;42.20;;;;;;5150041;27;45275;-66
2023/07/04 01:18:39;;;;;;;1.33;1.20;;;25.90;42.30;;;;;;5150177;27;45358;-67
2023/07/04 01:21:07;;;;;;;1.63;1.50;;;25.90;42.20;;;;;;5150384;27;45361;-67
2023/07/04 01:23:42;;;;;;;1.30;1.20;;;25.90;42.30;;;;;;5149978;27;47338;-66
2023/07/04 01:26:30;;;;;;;1.60;1.50;;;25.90;42.30;;;;;;5150052;27;45329;-67
2023/07/04 01:28:57;;;;;;;1.75;1.42;;;25.90;42.30;;;;;;5150192;27;45299;-66
2023/07/04 01:31:25;;;;;;;1.55;1.40;;;25.90;42.20;;;;;;5150120;27;45366;-66
2023/07/04 01:33:52;;;;;;;1.40;1.30;;;25.90;42.30;;;;;;5149807;27;45414;-66
2023/07/04 01:36:19;;;;;;;1.30;1.20;;;25.90;42.40;;;;;;5149634;27;45269;-66
2023/07/04 01:38:46;;;;;;;1.52;1.35;;;25.80;42.40;;;;;;5149946;27;45244;-67
2023/07/04 01:41:15;;;;;;;1.35;1.25;;;25.80;42.50;;;;;;5149669;27;45487;-66
2023/07/04 01:43:45;;;;;;;1.48;1.38;;;25.80;42.50;;;;;;5149547;27;46604;-66
2023/07/04 01:46:11;;;;;;;1.77;1.10;;;25.80;42.60;;;;;;5149607;27;45204;-66
2023/07/04 01:48:38;;;;;;;1.63;1.20;;;25.80;42.70;;;;;;5149614;27;45339;-66
2023/07/04 01:51:05;;;;;;;1.25;1.17;;;25.80;42.70;;;;;;5149439;27;45452;-66
2023/07/04 01:53:32;;;;;;;1.30;1.20;;;25.80;42.70;;;;;;5149455;27;45453;-66
2023/07/04 01:55:59;;;;;;;1.23;1.13;;;25.80;42.70;;;;;;5149496;27;45402;-66
2023/07/04 01:58:26;;;;;;;1.45;1.35;;;25.80;42.70;;;;;;5149477;27;45383;-67
2023/07/04 02:00:54;;;;;;;1.77;1.10;;;25.70;42.60;;;;;;5149527;27;45573;-67
2023/07/04 02:03:21;;;;;;;1.52;1.42;;;25.70;42.70;;;;;;5149482;27;47805;-66
2023/07/04 02:05:48;;;;;;;1.33;1.23;;;25.70;42.70;;;;;;5149296;27;45317;-66
2023/07/04 02:08:15;;;;;;;1.33;1.23;;;25.70;42.70;;;;;;5149378;27;45266;-66
2023/07/04 02:10:42;;;;;;;1.10;1.10;;;25.70;42.80;;;;;;5149734;27;45360;-66
2023/07/04 02:13:09;;;;;;;1.70;1.40;;;25.70;42.90;;;;;;5149063;27;45382;-67
2023/07/04 02:15:35;;;;;;;1.05;1.05;;;25.70;43.00;;;;;;5149054;27;45378;-66
2023/07/04 02:18:04;;;;;;;1.67;1.20;;;25.60;42.90;;;;;;5149131;27;45417;-66
2023/07/04 02:20:30;;;;;;;0.90;0.90;;;25.60;43.00;;;;;;5149168;27;45293;-67
2023/07/04 02:22:57;;;;;;;1.25;1.15;;;25.60;42.90;;;;;;5148778;27;46686;-66
2023/07/04 02:25:24;;;;;;;1.58;1.45;;;25.60;43.00;;;;;;5149057;27;45316;-66
2023/07/04 02:27:51;;;;;;;1.83;1.23;;;25.60;43.00;;;;;;5149132;27;45376;-66
2023/07/04 02:30:18;;;;;;;1.30;1.20;;;25.60;43.10;;;;;;5149010;27;45374;-66
2023/07/04 02:32:45;;;;;;;1.65;1.48;;;25.60;43.20;;;;;;5148996;27;46342;-66
2023/07/04 02:35:14;;;;;;;1.23;1.10;;;25.50;43.10;;;;;;5148884;27;45302;-66
2023/07/04 02:37:40;;;;;;;1.55;1.30;;;25.50;43.10;;;;;;5148805;27;45385;-66
2023/07/04 02:40:08;;;;;;;1.42;1.10;;;25.50;43.20;;;;;;5149080;27;45357;-66
2023/07/04 02:42:35;;;;;;;1.58;1.23;;;25.50;43.40;;;;;;5148617;27;45206;-66
2023/07/04 02:45:03;;;;;;;1.77;1.30;;;25.50;43.40;;;;;;5148870;27;45222;-66
2023/07/04 02:47:30;;;;;;;1.63;1.30;;;25.50;43.40;;;;;;5148796;27;45300;-67
2023/07/04 02:49:57;;;;;;;1.27;1.17;;;25.50;43.40;;;;;;5148776;27;45415;-66
2023/07/04 02:52:26;;;;;;;1.23;1.13;;;25.50;43.50;;;;;;5147873;27;45287;-66
2023/07/04 02:54:52;;;;;;;1.65;1.55;;;25.50;43.50;;;;;;5149007;27;45260;-66
2023/07/04 02:57:19;;;;;;;1.30;1.20;;;25.50;43.60;;;;;;5149129;27;45452;-67
2023/07/04 02:59:46;;;;;;;1.45;1.35;;;25.40;43.60;;;;;;5148773;27;45421;-66
2023/07/04 03:02:13;;;;;;;1.10;1.00;;;25.40;43.60;;;;;;5148746;27;45426;-66
2023/07/04 03:04:40;;;;;;;2.38;1.23;;;25.40;43.60;;;;;;5148847;27;45309;-66
2023/07/04 03:07:07;;;;;;;0.90;0.90;;;25.40;43.70;;;;;;5149047;27;45200;-66
2023/07/04 03:09:35;;;;;;;1.25;1.13;;;25.40;43.70;;;;;;5149099;27;45395;-67
2023/07/04 03:12:02;;;;;;;1.00;0.95;;;25.40;43.80;;;;;;5148865;27;45358;-66
2023/07/04 03:14:29;;;;;;;1.30;1.20;;;25.30;43.80;;;;;;5148795;27;45474;-67
2023/07/04 03:16:55;;;;;;;0.93;0.93;;;25.30;43.70;;;;;;5148791;27;45281;-67
2023/07/04 03:19:22;;;;;;;1.13;1.13;;;25.30;43.80;;;;;;5148924;27;45276;-67
2023/07/04 03:21:49;;;;;;;1.10;1.00;;;25.30;44.50;;;;;;5145814;27;45268;-66
2023/07/04 03:24:16;;;;;;;1.20;1.00;;;25.30;43.90;;;;;;5148502;27;45342;-67
2023/07/04 03:26:45;;;;;;;1.30;1.13;;;25.30;43.90;;;;;;5148877;27;45389;-66
2023/07/04 03:29:11;;;;;;;1.17;1.00;;;25.30;44.50;;;;;;5148812;27;45326;-66
2023/07/04 03:31:38;;;;;;;1.45;1.10;;;25.30;44.00;;;;;;5148331;27;45326;-67
2023/07/04 03:34:05;;;;;;;1.02;1.02;;;25.30;44.00;;;;;;5148613;27;45241;-66
2023/07/04 03:36:32;;;;;;;1.08;1.08;;;25.20;44.00;;;;;;5148735;27;45488;-67
2023/07/04 03:38:59;;;;;;;1.40;1.30;;;25.20;44.10;;;;;;5148659;27;45375;-66
2023/07/04 03:41:25;;;;;;;1.17;0.95;;;25.20;44.10;;;;;;5148237;27;47587;-66
2023/07/04 03:43:54;;;;;;;1.13;1.00;;;25.20;44.10;;;;;;5148040;27;45231;-66
2023/07/04 03:46:20;;;;;;;1.08;1.00;;;25.20;44.20;;;;;;5148734;27;45368;-67
2023/07/04 03:48:48;;;;;;;1.30;1.20;;;25.20;44.20;;;;;;5148767;27;45427;-66
2023/07/04 03:51:14;;;;;;;0.85;0.77;;;25.20;44.20;;;;;;5147869;27;45476;-66
2023/07/04 03:53:41;;;;;;;0.82;0.82;;;25.20;44.30;;;;;;5148423;27;45311;-66
2023/07/04 03:56:08;;;;;;;1.88;1.38;;;25.10;44.20;;;;;;5148265;27;45353;-66
2023/07/04 03:58:35;;;;;;;1.10;1.00;;;25.10;44.40;;;;;;5148429;27;45282;-66
2023/07/04 04:01:04;;;;;;;0.88;0.88;;;25.10;44.30;;;;;;5148022;27;45316;-66
2023/07/04 04:03:36;;;;;;;0.90;0.90;;;25.10;44.20;;;;;;5148634;27;45415;-66
2023/07/04 04:06:03;;;;;;;1.17;1.00;;;25.10;44.40;;;;;;5152091;27;45323;-66
2023/07/04 04:08:30;;;;;;;1.60;1.20;;;25.10;44.40;;;;;;5152250;27;45403;-66
2023/07/04 04:10:57;;;;;;;1.00;0.90;;;25.10;44.40;;;;;;5151612;27;46637;-66
2023/07/04 04:13:24;;;;;;;1.05;1.05;;;25.10;45.00;;;;;;5151671;27;45141;-67
2023/07/04 04:15:51;;;;;;;2.13;1.10;;;25.10;44.40;;;;;;5151749;27;45444;-66
2023/07/04 04:18:20;;;;;;;1.55;1.20;;;25.00;44.40;;;;;;5151875;27;45494;-67
2023/07/04 04:20:46;;;;;;;1.20;1.10;;;25.00;44.50;;;;;;5151350;27;45284;-66
2023/07/04 04:23:15;;;;;;;1.15;1.05;;;25.00;44.50;;;;;;5151619;27;45277;-66
2023/07/04 04:25:41;;;;;;;1.42;1.00;;;25.00;44.50;;;;;;5151947;27;45409;-66
2023/07/04 04:28:09;;;;;;;0.90;0.90;;;25.00;44.60;;;;;;5151760;27;45386;-66
2023/07/04 04:30:35;;;;;;;1.23;1.00;;;25.00;44.60;;;;;;5150623;27;45280;-66
2023/07/04 04:33:03;;;;;;;1.02;0.93;;;25.00;44.60;;;;;;5151415;27;45352;-67
2023/07/04 04:35:31;;;;;;;1.08;0.98;;;25.00;44.60;;;;;;5151533;27;45177;-66
2023/07/04 04:37:58;;;;;;;0.90;0.90;;;25.00;44.60;;;;;;5151503;27;45495;-66
2023/07/04 04:40:25;;;;;;;3.65;1.02;;;25.00;44.60;;;;;;5151290;27;46385;-66
2023/07/04 04:42:53;;;;;;;1.17;1.10;;;25.00;44.60;;;;;;5151396;27;45276;-66
2023/07/04 04:45:20;;;;;;;1.15;1.05;;;25.00;44.60;;;;;;5151348;27;45374;-66
2023/07/04 04:47:52;;;;;;;1.98;1.00;;;25.00;44.70;;;;;;5151675;27;45425;-65
2023/07/04 04:50:19;;;;;;;0.98;0.95;;;25.00;44.70;;;;;;5150794;27;45262;-67
2023/07/04 04:52:47;;;;;;;1.10;1.00;;;25.00;44.70;;;;;;5151014;27;45301;-67
2023/07/04 04:55:14;;;;;;;1.48;1.00;;;24.90;44.60;;;;;;5151177;27;45384;-67
2023/07/04 04:57:41;;;;;;;1.02;0.93;;;24.90;44.60;;;;;;5151245;27;45410;-67
2023/07/04 05:00:10;;;;;;;1.20;1.10;;;24.90;44.60;;;;;;5150844;27;46409;-67
2023/07/04 05:02:36;;;;;;;0.95;0.95;;;24.90;44.60;;;;;;5151053;27;45392;-67
2023/07/04 05:05:04;;;;;;;0.80;0.80;;;24.90;44.60;;;;;;5151068;27;45382;-67
2023/07/04 05:07:30;;;;;;;1.95;1.30;;;24.90;44.60;;;;;;5151309;27;45245;-67
2023/07/04 05:09:59;;;;;;;1.13;0.90;;;24.90;44.50;;;;;;5150954;27;46486;-67
2023/07/04 05:12:25;;;;;;;1.40;1.10;;;24.90;44.60;;;;;;5150871;27;45382;-67
2023/07/04 05:14:52;;;;;;;1.17;1.08;;;24.90;44.60;;;;;;5150417;27;45327;-67
2023/07/04 05:17:19;;;;;;;1.73;1.13;;;24.90;44.50;;;;;;5150426;27;45447;-67
2023/07/04 05:19:48;;;;;;;0.95;0.93;;;24.90;44.50;;;;;;5150574;27;45543;-67
2023/07/04 05:22:15;;;;;;;0.95;0.95;;;24.90;44.50;;;;;;5150545;27;45195;-67
2023/07/04 05:24:41;;;;;;;0.90;0.90;;;24.80;44.50;;;;;;5150688;27;45244;-67
2023/07/04 05:27:10;;;;;;;1.00;0.90;;;24.80;44.50;;;;;;5150709;27;45376;-68
2023/07/04 05:29:36;;;;;;;0.73;0.73;;;24.80;44.60;;;;;;5150344;27;46376;-67
2023/07/04 05:32:04;;;;;;;1.02;0.95;;;24.80;44.50;;;;;;5150375;27;45302;-66
2023/07/04 05:34:31;;;;;;;1.20;1.10;;;24.80;44.60;;;;;;5150431;27;45437;-67
2023/07/04 05:36:57;;;;;;;0.93;0.93;;;24.80;44.50;;;;;;5150665;27;45518;-67
2023/07/04 05:39:24;;;;;;;1.20;1.10;;;24.80;44.50;;;;;;5150359;27;45390;-67
2023/07/04 05:41:51;;;;;;;0.90;0.90;;;24.80;44.60;;;;;;5150316;27;45260;-67
2023/07/04 05:44:21;;;;;;;0.93;0.90;;;24.80;44.60;;;;;;5150308;27;45333;-67
2023/07/04 05:46:47;;;;;;;0.90;0.90;;;24.80;44.50;;;;;;5150723;27;45514;-67
2023/07/04 05:49:14;;;;;;;0.70;0.70;;;24.80;44.60;;;;;;5149903;27;45438;-66
2023/07/04 05:51:41;;;;;;;1.00;1.00;;;24.80;44.60;;;;;;5149707;27;45257;-66
2023/07/04 05:54:08;;;;;;;0.80;0.80;;;24.80;44.60;;;;;;5150134;27;45311;-67
2023/07/04 05:56:35;;;;;;;0.90;0.90;;;24.80;44.60;;;;;;5150349;27;45172;-66
2023/07/04 05:59:02;;;;;;;0.80;0.80;;;24.80;44.70;;;;;;5149778;27;45351;-67
2023/07/04 06:01:32;;;;;;;0.88;0.88;;;24.80;44.70;;;;;;5149634;27;45363;-66
2023/07/04 06:03:59;;;;;;;0.90;0.90;;;24.80;44.60;;;;;;5149819;27;45319;-66
2023/07/04 06:06:27;;;;;;;1.13;1.00;;;24.80;44.60;;;;;;5150759;27;45330;-66
2023/07/04 06:08:54;;;;;;;1.17;1.00;;;24.80;44.60;;;;;;5149896;27;46285;-67
2023/07/04 06:11:22;;;;;;;1.10;1.00;;;24.80;44.50;;;;;;5149510;27;45287;-66
2023/07/04 06:13:49;;;;;;;0.80;0.80;;;24.80;44.60;;;;;;5150128;27;45329;-66
2023/07/04 06:16:16;;;;;;;0.93;0.93;;;24.80;44.60;;;;;;5151181;27;45243;-66
2023/07/04 06:18:44;;;;;;;3.08;0.82;;;24.80;44.60;;;;;;5149458;27;45355;-66
2023/07/04 06:21:11;;;;;;;2.97;0.73;;;24.80;44.80;;;;;;5149281;27;45369;-67
2023/07/04 06:23:38;;;;;;;1.20;0.90;;;24.80;44.80;;;;;;5149647;27;45317;-67
2023/07/04 06:26:06;;;;;;;3.85;1.00;;;24.90;44.80;;;;;;5149212;27;45245;-66
2023/07/04 06:28:32;;;;;;;1.23;1.00;;;24.80;44.60;;;;;;5148985;27;46607;-67
2023/07/04 06:30:59;;;;;;;0.80;0.80;;;24.90;44.70;;;;;;5149344;27;45311;-67
2023/07/04 06:33:27;;;;;;;0.73;0.70;;;24.90;44.70;;;;;;5149562;27;45299;-65
2023/07/04 06:35:55;;;;;;;0.93;0.88;;;24.90;44.70;;;;;;5149695;27;45547;-66
2023/07/04 06:38:22;;;;;;;1.13;0.93;;;24.90;45.30;;;;;;5149220;27;45390;-66
2023/07/04 06:40:56;;;;;;;1.25;1.00;;;24.90;44.70;;;;;;5149037;27;45372;-65
2023/07/04 06:43:23;;;;;;;1.67;1.10;;;24.90;44.60;;;;;;5149478;27;45469;-64
2023/07/04 06:45:49;;;;;;;0.80;0.70;;;24.90;44.60;;;;;;5149349;27;45363;-66
2023/07/04 06:48:16;;;;;;;0.90;0.90;;;24.90;44.60;;;;;;5149077;27;47305;-64
2023/07/04 06:50:45;;;;;;;0.82;0.82;;;24.90;44.60;;;;;;5148357;27;45320;-65
2023/07/04 06:53:13;;;;;;;0.98;0.95;;;24.90;44.60;;;;;;5149181;27;45322;-65
2023/07/04 06:55:40;;;;;;;0.90;0.90;;;24.90;44.60;;;;;;5149269;27;45390;-66
2023/07/04 06:58:07;;;;;;;0.70;0.70;;;24.90;44.60;;;;;;5148801;27;46361;-65
2023/07/04 07:00:34;;;;;;;1.00;0.77;;;24.90;44.60;;;;;;5148962;27;45264;-65
2023/07/04 07:03:00;;;;;;;0.80;0.80;;;25.00;44.60;;;;;;5149271;27;45261;-65
2023/07/04 07:05:27;;;;;;;1.75;1.00;;;24.90;44.60;;;;;;5149180;27;45451;-65
2023/07/04 07:07:54;;;;;;;1.02;0.93;;;25.00;44.60;;;;;;5148916;27;47313;-65
2023/07/04 07:10:22;;;;;;;1.00;0.82;;;25.00;44.50;;;;;;5148901;27;45338;-66
2023/07/04 07:12:49;;;;;;;0.95;0.90;;;25.00;44.50;;;;;;5148684;27;45245;-65
2023/07/04 07:15:16;;;;;;;1.08;0.80;;;25.00;44.50;;;;;;5149096;27;45290;-65
2023/07/04 07:17:43;;;;;;;0.90;0.90;;;25.00;44.50;;;;;;5148845;27;46442;-65
2023/07/04 07:20:10;;;;;;;2.33;1.00;;;25.00;44.50;;;;;;5145678;27;45334;-65
2023/07/04 07:22:37;;;;;;;0.98;0.98;;;25.00;44.40;;;;;;5148783;27;45322;-65
2023/07/04 07:25:04;;;;;;;0.93;0.82;;;25.00;44.40;;;;;;5148832;27;45476;-65
2023/07/04 07:27:32;;;;;;;1.00;0.90;;;25.10;44.30;;;;;;5148293;27;46760;-66
2023/07/04 07:29:59;;;;;;;0.80;0.80;;;25.10;44.90;;;;;;5148684;27;45386;-66
2023/07/04 07:32:26;;;;;;;0.60;0.60;;;25.10;44.30;;;;;;5148720;27;45432;-65
2023/07/04 07:34:53;;;;;;;0.90;0.90;;;25.10;44.30;;;;;;5148313;27;45414;-66
2023/07/04 07:37:20;;;;;;;0.82;0.82;;;25.10;44.20;;;;;;5147739;27;46426;-65
2023/07/04 07:39:47;;;;;;;1.15;0.90;;;25.10;44.20;;;;;;5148392;27;45373;-65
2023/07/04 07:42:14;;;;;;;2.55;0.93;;;25.10;44.10;;;;;;5148152;27;45344;-66
2023/07/04 07:44:42;;;;;;;0.93;0.90;;;25.10;44.10;;;;;;5148685;27;45493;-65
2023/07/04 07:47:10;;;;;;;1.10;1.00;;;25.20;44.10;;;;;;5148111;27;45541;-65
2023/07/04 07:49:37;;;;;;;1.30;0.98;;;25.20;44.10;;;;;;5148554;27;45501;-65
2023/07/04 07:52:04;;;;;;;0.80;0.80;;;25.20;44.10;;;;;;5148139;27;45272;-66
2023/07/04 07:54:31;;;;;;;1.25;1.00;;;25.20;44.00;;;;;;5148636;27;45439;-66
2023/07/04 07:56:57;;;;;;;0.90;0.90;;;25.20;44.00;;;;;;5148086;27;45475;-65
2023/07/04 07:59:24;;;;;;;0.98;0.88;;;25.30;44.10;;;;;;5148153;27;45264;-65
2023/07/04 08:01:54;;;;;;;0.88;0.88;;;25.30;44.00;;;;;;5148417;27;45329;-66
2023/07/04 08:04:20;;;;;;;1.20;1.10;;;25.30;44.00;;;;;;5148536;27;45221;-66
2023/07/04 08:06:47;;;;;;;1.58;0.80;;;25.30;44.00;;;;;;5148111;27;46714;-65
2023/07/04 08:09:16;;;;;;;1.08;0.82;;;25.30;44.00;;;;;;5148215;27;45255;-66
2023/07/04 08:11:45;;;;;;;1.10;0.80;;;25.30;44.00;;;;;;5148106;27;45358;-67
2023/07/04 08:14:13;;;;;;;1.17;1.10;;;25.30;44.00;;;;;;5148352;27;45493;-66
2023/07/04 08:16:44;;;;;;;1.15;0.80;;;25.30;44.30;;;;;;5148451;27;47331;-66
2023/07/04 08:19:13;;;;;;;1.33;0.80;;;25.30;44.40;;;;;;5147688;27;45371;-66
2023/07/04 08:21:40;;;;;;;0.70;0.70;;;25.30;44.20;;;;;;5147966;27;45294;-66
2023/07/04 08:24:10;;;;;;;1.77;0.93;;;25.40;44.30;;;;;;5148414;27;45314;-66
2023/07/04 08:26:37;;;;;;;1.17;1.10;;;25.40;44.30;;;;;;5147875;27;45289;-67
2023/07/04 08:29:05;;;;;;;1.20;1.10;;;25.50;44.30;;;;;;5147848;27;45335;-66
2023/07/04 08:31:32;;;;;;;1.20;1.08;;;25.50;44.30;;;;;;5147981;27;45331;-67
2023/07/04 08:33:59;;;;;;;0.93;0.90;;;25.50;44.40;;;;;;5148254;27;45287;-66
2023/07/04 08:36:28;;;;;;;1.17;0.98;;;25.50;44.30;;;;;;5147847;27;47340;-66
2023/07/04 08:38:55;;;;;;;0.80;0.80;;;25.50;44.40;;;;;;5147716;27;45307;-66
2023/07/04 08:41:27;;;;;;;1.00;1.00;;;25.60;44.40;;;;;;5148125;27;45404;-66
2023/07/04 08:43:57;;;;;;;0.93;0.80;;;25.60;44.40;;;;;;5147952;27;45371;-66
2023/07/04 08:46:24;;;;;;;0.80;0.80;;;25.60;44.30;;;;;;5147539;27;46404;-66
2023/07/04 08:48:51;;;;;;;0.73;0.70;;;25.60;44.30;;;;;;5147818;27;45405;-67
2023/07/04 08:51:20;;;;;;;0.80;0.80;;;25.60;44.40;;;;;;5150351;27;45288;-65
2023/07/04 08:53:51;;;;;;;1.08;1.02;;;25.70;44.40;;;;;;5151500;27;45314;-65
2023/07/04 08:56:20;;;;;;;0.90;0.90;;;25.60;44.40;;;;;;5150829;27;45285;-66
2023/07/04 08:58:55;;;;;;;1.00;0.95;;;25.70;45.00;;;;;;5150997;27;45360;-66
2023/07/04 09:01:33;;;;;;;1.27;1.00;;;25.70;44.40;;;;;;5151074;27;45415;-65
2023/07/04 09:04:01;;;;;;;0.73;0.73;;;25.70;44.50;;;;;;5151119;27;45470;-65
2023/07/04 09:06:31;;;;;;;0.80;0.80;;;25.70;44.40;;;;;;5151089;27;47603;-66
2023/07/04 09:09:03;;;;;;;0.85;0.85;;;25.80;44.50;;;;;;5150855;27;45461;-66
2023/07/04 09:11:30;;;;;;;0.95;0.95;;;25.80;44.40;;;;;;5150865;27;45256;-66
2023/07/04 09:13:58;;;;;;;1.33;1.10;;;25.80;45.10;;;;;;5151211;27;45351;-65
2023/07/04 09:16:28;;;;;;;0.80;0.80;;;25.90;44.40;;;;;;5150702;27;45407;-65
2023/07/04 09:18:57;;;;;;;1.00;0.90;;;25.90;44.40;;;;;;5150342;27;45272;-65
2023/07/04 09:21:25;;;;;;;2.15;0.90;;;25.90;44.40;;;;;;5150346;27;45425;-65
2023/07/04 09:23:52;;;;;;;1.33;1.02;;;25.90;44.40;;;;;;5150083;27;45463;-65
2023/07/04 09:26:24;;;;;;;1.05;0.95;;;26.00;44.50;;;;;;5150003;27;46298;-65
2023/07/04 09:28:51;;;;;;;1.75;0.98;;;26.00;44.50;;;;;;5150288;27;45331;-65
2023/07/04 09:31:19;;;;;;;1.70;1.42;;;26.00;44.50;;;;;;5150130;27;45354;-65
2023/07/04 09:33:47;;;;;;;2.38;0.90;;;26.00;44.50;;;;;;5150809;27;45248;-65
2023/07/04 09:36:14;;;;;;;3.88;1.00;;;26.00;44.50;;;;;;5149795;27;46663;-65
2023/07/04 09:38:51;;;;;;;1.35;1.20;;;26.10;44.70;;;;;;5150039;27;45318;-66
2023/07/04 09:41:19;;;;;;;1.45;1.02;;;26.10;44.60;;;;;;5150152;27;45341;-65
2023/07/04 09:43:46;;;;;;;3.15;1.20;;;26.10;44.60;;;;;;5150325;27;45243;-66
2023/07/04 09:46:18;;;;;;;2.70;1.10;;;26.20;44.60;;;;;;5149884;27;45548;-65
2023/07/04 09:48:45;;;;;;;2.22;1.15;;;26.20;44.60;;;;;;5149985;27;45333;-65
2023/07/04 09:51:25;;;;;;;1.90;1.13;;;26.20;44.60;;;;;;5149977;27;45667;-65
2023/07/04 09:53:53;;;;;;;1.75;1.02;;;26.30;44.70;;;;;;5149920;27;45419;-66
2023/07/04 09:56:27;;;;;;;1.85;1.20;;;26.30;44.50;;;;;;5149563;27;45477;-65
2023/07/04 09:59:14;;;;;;;1.67;1.35;;;26.40;44.60;;;;;;5149812;27;45265;-65
2023/07/04 10:01:41;;;;;;;2.60;1.27;;;26.40;44.60;;;;;;5149539;27;45290;-66
2023/07/04 10:04:08;;;;;;;1.50;1.17;;;26.40;44.60;;;;;;5149830;27;45330;-65
2023/07/04 10:06:36;;;;;;;1.60;1.10;;;26.50;44.60;;;;;;5149563;27;46173;-65
2023/07/04 10:09:05;;;;;;;1.20;1.10;;;26.50;44.60;;;;;;5149335;27;45173;-65
2023/07/04 10:11:35;;;;;;;1.30;1.20;;;26.50;44.60;;;;;;5149840;27;45554;-65
2023/07/04 10:14:06;;;;;;;1.40;1.30;;;26.50;44.60;;;;;;5150044;27;45468;-65
2023/07/04 10:16:33;;;;;;;1.40;1.30;;;26.50;44.60;;;;;;5149287;27;45304;-66
2023/07/04 10:19:03;;;;;;;0.90;0.88;;;26.60;44.80;;;;;;5149246;27;45339;-64
2023/07/04 10:21:30;;;;;;;1.20;1.10;;;26.60;44.70;;;;;;5149716;27;45286;-67
2023/07/04 10:23:59;;;;;;;1.48;1.38;;;26.60;44.70;;;;;;5149532;27;45417;-67
2023/07/04 10:26:26;;;;;;;2.13;1.45;;;26.60;44.80;;;;;;5149185;27;45391;-66
2023/07/04 10:28:54;;;;;;;2.22;1.33;;;26.70;44.80;;;;;;5149181;27;45267;-67
2023/07/04 10:31:21;;;;;;;1.58;1.30;;;26.70;44.70;;;;;;5148832;27;45334;-66
2023/07/04 10:33:51;;;;;;;3.35;1.30;;;26.70;44.70;;;;;;5149401;27;45413;-68
2023/07/04 10:36:21;;;;;;;1.98;1.40;;;26.80;44.70;;;;;;5148942;27;45282;-67
2023/07/04 10:38:48;;;;;;;1.48;1.30;;;26.80;44.70;;;;;;5149077;27;45385;-66
2023/07/04 10:41:34;;;;;;;2.00;1.20;;;26.80;44.60;;;;;;5149198;27;45387;-67
2023/07/04 10:44:04;;;;;;;2.38;1.45;;;26.90;44.70;;;;;;5149296;27;45381;-66
2023/07/04 10:46:34;;;;;;;1.60;1.50;;;26.90;44.60;;;;;;5149033;27;46253;-66
2023/07/04 10:49:04;;;;;;;1.92;1.40;;;26.90;44.60;;;;;;5149054;27;45451;-66
2023/07/04 10:51:32;;;;;;;1.67;1.38;;;27.00;44.60;;;;;;5148558;27;45302;-66
2023/07/04 10:53:59;;;;;;;1.40;1.30;;;27.00;44.70;;;;;;5148913;27;45393;-66
2023/07/04 10:56:28;;;;;;;2.65;1.40;;;27.00;44.70;;;;;;5148779;27;45420;-66
2023/07/04 10:59:00;;;;;;;2.35;1.48;;;27.00;44.70;;;;;;5148934;27;45327;-66
2023/07/04 11:01:29;;;;;;;2.08;1.20;;;27.00;44.60;;;;;;5148980;27;45320;-66
2023/07/04 11:03:58;;;;;;;3.60;1.58;;;27.10;44.60;;;;;;5149016;27;45286;-66
2023/07/04 11:06:29;;;;;;;3.53;1.60;;;27.10;44.50;;;;;;5148408;27;45420;-66
2023/07/04 11:08:56;;;;;;;2.92;1.15;;;27.20;44.60;;;;;;5148479;27;45332;-66
2023/07/04 11:11:25;;;;;;;1.50;1.40;;;27.20;44.50;;;;;;5148865;27;45629;-66
2023/07/04 11:13:53;;;;;;;1.92;1.30;;;27.30;44.50;;;;;;5148210;27;45463;-67
2023/07/04 11:16:22;;;;;;;2.05;1.60;;;27.30;44.40;;;;;;5148342;27;46376;-66
2023/07/04 11:19:07;;;;;;;1.20;1.10;;;27.40;44.50;;;;;;5148464;27;45377;-69
2023/07/04 11:21:34;;;;;;;4.35;1.40;;;27.40;44.40;;;;;;5148582;27;45483;-66
2023/07/04 11:24:13;;;;;;;1.38;1.27;;;27.50;44.40;;;;;;5149057;27;45474;-66
2023/07/04 11:26:49;;;;;;;2.55;1.50;;;27.50;44.40;;;;;;5148292;27;45531;-67
2023/07/04 11:29:17;;;;;;;1.80;1.40;;;27.50;44.30;;;;;;5148664;27;45307;-66
2023/07/04 11:32:13;;;;;;;2.80;1.55;;;27.60;44.30;;;;;;5148431;27;45443;-67
2023/07/04 11:34:46;;;;;;;1.40;1.30;;;27.60;44.40;;;;;;5148701;27;45237;-66
2023/07/04 11:37:16;;;;;;;2.00;1.38;;;27.70;44.20;;;;;;5145724;27;45463;-66
2023/07/04 11:39:43;;;;;;;3.00;1.58;;;27.70;44.10;;;;;;5148267;27;45390;-67
2023/07/04 11:42:16;;;;;;;3.03;1.27;;;27.80;44.10;;;;;;5148803;27;45372;-67
2023/07/04 11:44:51;;;;;;;2.22;1.70;;;27.80;44.00;;;;;;5148456;27;45481;-67
2023/07/04 11:47:33;;;;;;;1.80;1.50;;;27.80;44.00;;;;;;5148133;27;46436;-66
2023/07/04 11:50:03;;;;;;;1.88;1.38;;;27.90;44.00;;;;;;5148299;27;45358;-66
2023/07/04 11:52:30;;;;;;;2.50;1.60;;;27.90;44.00;;;;;;5148658;27;45365;-67
2023/07/04 11:54:57;;;;;;;2.10;1.40;;;27.90;43.90;;;;;;5148577;27;45428;-66
2023/07/04 11:57:24;;;;;;;1.45;1.27;;;27.90;43.90;;;;;;5148169;27;45738;-66
2023/07/04 11:59:51;;;;;;;2.28;1.30;;;28.00;43.90;;;;;;5148155;27;45311;-66
2023/07/04 12:02:30;;;;;;;4.65;1.40;;;28.00;43.80;;;;;;5149098;27;45410;-69
2023/07/04 12:04:57;;;;;;;1.55;1.45;;;28.00;46.00;;;;;;5152491;27;45318;-68
2023/07/04 12:07:40;;;;;;;3.53;1.65;;;28.00;46.40;;;;;;5151593;27;45600;-71
2023/07/04 12:10:10;;;;;;;7.82;1.88;;;28.10;47.60;;;;;;5151307;27;45306;-70
2023/07/04 12:12:37;;;;;;;4.68;1.25;;;28.20;48.30;;;;;;5150711;27;45360;-73
2023/07/04 12:15:08;;;;;;;4.65;1.20;;;28.20;48.30;;;;;;5150250;27;45255;-67
2023/07/04 12:17:36;;;;;;;3.80;1.70;;;28.20;48.20;;;;;;5150284;27;45417;-65
2023/07/04 12:20:07;;;;;;;2.90;1.38;;;28.20;48.30;;;;;;5150929;27;45390;-66
2023/07/04 12:22:36;;;;;;;1.88;1.20;;;28.30;48.60;;;;;;5150105;27;45321;-67
2023/07/04 12:25:10;;;;;;;3.50;1.53;;;28.40;47.20;;;;;;5150053;27;45294;-67
2023/07/04 12:27:37;;;;;;;2.17;1.40;;;28.40;47.40;;;;;;5153330;27;45417;-67
2023/07/04 12:30:05;;;;;;;2.03;1.50;;;28.50;45.80;;;;;;5153467;27;45318;-66
2023/07/04 12:32:36;;;;;;;3.33;1.63;;;28.50;45.20;;;;;;5152847;27;45252;-67
2023/07/04 12:35:03;;;;;;;2.90;1.27;;;28.70;44.80;;;;;;5152625;27;45361;-67
2023/07/04 12:37:31;;;;;;;3.17;1.52;;;28.70;44.50;;;;;;5152364;27;46589;-66
2023/07/04 12:40:04;;;;;;;2.67;1.40;;;28.80;44.00;;;;;;5153769;27;45267;-69
2023/07/04 12:42:31;;;;;;;6.97;1.38;;;28.90;43.80;;;;;;5156005;27;45282;-73
2023/07/04 12:44:58;;;;;;;8.77;3.60;;;28.90;42.60;;;;;;5153981;27;45417;-69
2023/07/04 12:47:26;;;;;;;17.67;6.70;;;29.00;42.80;;;;;;5154576;27;46405;-75
2023/07/04 12:49:54;;;;;;;11.57;3.70;;;29.00;42.80;;;;;;5153572;27;45418;-67
2023/07/04 12:52:23;;;;;;;15.02;3.75;;;29.00;43.60;;;;;;5152747;27;45348;-66